Time;durP1;ratioP1;P1;durP2;ratioP2;P2;SDS_P1;SDS_P2;PMS_P1;PMS_P2;Temp;Humidity;BMP_temperature;BMP_pressure;BME280_temperature;BME280_humidity;BME280_pressure;Samples;Min_cycle;Max_cycle;Signal;HPM_P1;HPM_P2
2022/03/30 00:01:49;;;;;;;34.95;20.23;;;;;;;8.72;61.32;97964.44;5018614;28;20038;-80
2022/03/30 00:04:14;;;;;;;35.05;20.73;;;;;;;8.66;61.59;97959.34;5005945;28;20069;-80
2022/03/30 00:06:39;;;;;;;38.63;20.25;;;;;;;8.72;61.77;97968.97;5011369;28;20049;-80
2022/03/30 00:09:05;;;;;;;38.20;19.75;;;;;;;8.66;61.18;97964.69;4989398;28;20044;-80
2022/03/30 00:11:30;;;;;;;35.78;20.55;;;;;;;8.66;61.44;97964.69;5009924;28;20563;-80
2022/03/30 00:13:56;;;;;;;39.75;21.67;;;;;;;8.67;61.59;97963.63;4995122;28;20029;-80
2022/03/30 00:16:23;;;;;;;37.45;20.27;;;;;;;8.64;61.38;97966.78;4993680;28;20034;-80
2022/03/30 00:18:49;;;;;;;33.03;20.38;;;;;;;8.66;61.32;97973.47;4997363;28;20112;-80
2022/03/30 00:21:14;;;;;;;34.45;21.45;;;;;;;8.65;61.49;97969.19;5020051;28;20511;-81
2022/03/30 00:23:39;;;;;;;36.00;19.77;;;;;;;8.59;61.34;97956.94;5018780;28;20060;-80
2022/03/30 00:26:05;;;;;;;30.23;19.67;;;;;;;8.57;62.24;97956.38;5011240;28;20513;-80
2022/03/30 00:28:30;;;;;;;36.80;21.17;;;;;;;8.64;61.59;97964.94;5009584;28;20091;-80
2022/03/30 00:30:57;;;;;;;39.65;20.50;;;;;;;8.56;61.98;97954.00;4993699;28;20040;-80
2022/03/30 00:33:22;;;;;;;37.05;19.70;;;;;;;8.58;61.65;97952.69;5012570;28;20029;-80
2022/03/30 00:35:48;;;;;;;36.17;20.65;;;;;;;8.60;61.75;97957.72;4984338;28;20411;-80
2022/03/30 00:38:13;;;;;;;34.22;20.63;;;;;;;8.57;61.48;97947.59;5027307;28;20057;-80
2022/03/30 00:40:39;;;;;;;37.20;21.13;;;;;;;8.52;61.65;97950.25;4992863;28;20030;-80
2022/03/30 00:43:04;;;;;;;35.80;20.73;;;;;;;8.57;61.69;97947.59;5012001;28;20025;-80
2022/03/30 00:45:30;;;;;;;35.13;19.17;;;;;;;8.57;61.48;97951.06;5009526;28;20387;-80
2022/03/30 00:47:55;;;;;;;36.80;19.48;;;;;;;8.55;61.29;97947.06;5009246;28;20072;-80
2022/03/30 00:50:22;;;;;;;35.85;20.20;;;;;;;8.52;61.59;97943.03;4998386;28;20029;-80
2022/03/30 00:52:56;;;;;;;32.20;19.33;;;;;;;8.58;61.42;97944.69;5017284;28;20068;-80
2022/03/30 00:55:23;;;;;;;35.05;18.92;;;;;;;8.53;61.87;97946.50;5021077;28;20029;-80
2022/03/30 00:57:49;;;;;;;37.40;18.85;;;;;;;8.56;61.74;97936.16;5016206;28;20033;-80
2022/03/30 01:00:16;;;;;;;34.70;18.95;;;;;;;8.52;61.48;97932.41;5010109;28;20029;-80
2022/03/30 01:02:45;;;;;;;35.92;18.80;;;;;;;8.52;61.06;97928.97;5014232;28;20041;-80
2022/03/30 01:05:12;;;;;;;33.92;18.63;;;;;;;8.56;61.76;97936.16;5015917;28;20449;-80
2022/03/30 01:07:37;;;;;;;32.60;19.48;;;;;;;8.52;62.51;97929.75;5010193;28;20033;-80
2022/03/30 01:10:07;;;;;;;32.85;18.50;;;;;;;8.53;61.09;97928.72;4990475;28;20466;-80
2022/03/30 01:12:36;;;;;;;34.47;19.17;;;;;;;8.52;62.04;97929.75;5011337;28;20393;-80
2022/03/30 01:15:02;;;;;;;34.53;20.00;;;;;;;8.48;62.09;97927.84;5014072;28;20462;-81
2022/03/30 01:17:27;;;;;;;36.00;17.65;;;;;;;8.55;61.70;97925.78;4998384;28;20029;-80
2022/03/30 01:19:53;;;;;;;32.55;17.42;;;;;;;8.47;62.12;97926.28;5011626;28;20056;-80
2022/03/30 01:22:18;;;;;;;28.35;16.75;;;;;;;8.57;61.17;97916.50;5010589;28;20037;-80
2022/03/30 01:24:44;;;;;;;34.75;17.70;;;;;;;8.46;62.69;97917.50;4996374;28;20034;-81
2022/03/30 01:27:09;;;;;;;28.30;17.58;;;;;;;8.49;61.99;97918.84;5008318;28;20125;-80
2022/03/30 01:32:25;;;;;;;31.13;17.27;;;;;;;8.52;61.82;97910.34;5021295;28;20469;-80
2022/03/30 01:34:51;;;;;;;32.60;18.95;;;;;;;8.49;62.17;97908.19;5013613;28;20444;-80
2022/03/30 01:37:17;;;;;;;35.88;17.65;;;;;;;8.49;61.50;97909.00;5014431;28;20030;-81
2022/03/30 01:39:42;;;;;;;29.58;17.23;;;;;;;8.45;62.36;97912.44;5010837;28;20033;-81
2022/03/30 01:42:08;;;;;;;33.05;17.33;;;;;;;8.48;61.63;97907.41;5012216;28;20025;-81
2022/03/30 01:44:34;;;;;;;30.58;18.33;;;;;;;8.50;61.27;97902.63;5013546;28;20033;-80
2022/03/30 01:47:00;;;;;;;33.40;16.50;;;;;;;8.42;62.45;97886.34;5019527;28;20045;-80
2022/03/30 01:49:25;;;;;;;32.83;16.98;;;;;;;8.30;61.96;97890.00;5009897;28;20519;-80
2022/03/30 01:51:52;;;;;;;29.35;16.10;;;;;;;8.38;62.08;97894.06;5012475;28;20066;-80
2022/03/30 01:54:20;;;;;;;33.65;16.70;;;;;;;8.42;62.17;97886.34;4998997;28;20021;-81
2022/03/30 01:56:46;;;;;;;29.35;16.80;;;;;;;8.27;62.31;97879.09;5005801;28;20069;-81
2022/03/30 01:59:11;;;;;;;30.17;15.63;;;;;;;8.36;62.28;97880.22;5018353;28;20038;-81
2022/03/30 02:01:38;;;;;;;34.05;15.65;;;;;;;8.34;62.24;97884.19;5002301;28;20034;-81
2022/03/30 02:04:03;;;;;;;27.63;15.18;;;;;;;8.32;62.07;97874.59;4999699;28;20034;-81
2022/03/30 02:06:29;;;;;;;28.92;16.25;;;;;;;8.32;62.30;97867.69;5023618;28;20045;-80
2022/03/30 02:08:54;;;;;;;29.85;15.75;;;;;;;8.27;62.39;97869.28;5003141;28;20079;-81
2022/03/30 02:11:19;;;;;;;28.70;15.60;;;;;;;8.27;62.07;97871.13;5007281;28;20037;-80
2022/03/30 02:13:45;;;;;;;29.27;15.20;;;;;;;8.31;61.89;97864.22;5010954;28;20034;-81
2022/03/30 02:16:10;;;;;;;27.80;16.27;;;;;;;8.25;61.85;97859.91;4994209;28;20080;-81
2022/03/30 02:18:35;;;;;;;29.65;15.25;;;;;;;8.35;62.53;97864.50;5006291;28;20034;-81
2022/03/30 02:21:01;;;;;;;30.42;14.18;;;;;;;8.32;62.58;97866.63;5008666;28;20066;-81
2022/03/30 02:23:26;;;;;;;25.90;14.20;;;;;;;8.33;62.15;97856.78;4993075;28;20038;-81
2022/03/30 02:25:51;;;;;;;25.17;13.80;;;;;;;8.24;62.07;97859.13;5003809;28;20022;-80
2022/03/30 02:28:17;;;;;;;26.05;13.23;;;;;;;8.19;62.39;97860.97;5021095;28;20112;-80
2022/03/30 02:30:42;;;;;;;23.17;12.80;;;;;;;8.23;62.12;97848.75;5005546;28;20034;-80
2022/03/30 02:33:07;;;;;;;27.45;13.20;;;;;;;8.35;62.26;97859.19;4982030;28;20069;-80
2022/03/30 02:35:33;;;;;;;24.58;12.30;;;;;;;8.23;62.16;97854.06;4991969;28;20411;-81
2022/03/30 02:37:59;;;;;;;22.85;11.80;;;;;;;8.23;62.06;97859.38;4995441;28;20034;-80
2022/03/30 02:40:25;;;;;;;23.65;11.45;;;;;;;8.19;61.99;97853.75;5004134;28;20108;-80
2022/03/30 02:42:50;;;;;;;23.58;12.00;;;;;;;8.15;63.25;97852.69;4989908;28;20441;-80
2022/03/30 02:45:15;;;;;;;21.08;11.02;;;;;;;8.19;62.64;97859.06;5006574;28;20033;-80
2022/03/30 02:50:25;;;;;;;18.90;11.02;;;;;;;8.07;62.22;97831.91;5008665;28;20520;-80
2022/03/30 02:52:50;;;;;;;20.52;11.60;;;;;;;8.19;62.35;97837.03;5001320;28;20033;-80
2022/03/30 02:55:16;;;;;;;22.20;12.20;;;;;;;8.26;61.83;97829.63;4986280;28;20042;-80
2022/03/30 02:57:41;;;;;;;23.35;11.85;;;;;;;8.15;61.99;97827.94;5009138;28;20041;-80
2022/03/30 03:00:07;;;;;;;25.50;11.15;;;;;;;8.16;62.25;97826.91;4988200;28;20061;-80
2022/03/30 03:02:34;;;;;;;18.50;11.48;;;;;;;8.09;62.34;97826.31;5002695;28;20469;-80
2022/03/30 03:05:00;;;;;;;19.88;11.32;;;;;;;8.09;62.07;97826.31;5005167;28;21492;-81
2022/03/30 03:07:25;;;;;;;24.70;10.98;;;;;;;8.14;62.22;97824.50;4979681;28;20073;-81
2022/03/30 03:09:52;;;;;;;20.95;11.68;;;;;;;8.02;62.79;97823.09;5000985;28;20401;-80
2022/03/30 03:12:17;;;;;;;22.77;11.45;;;;;;;8.04;62.34;97820.97;4987124;28;20026;-80
2022/03/30 03:14:43;;;;;;;18.83;10.43;;;;;;;8.03;62.87;97822.03;5006030;28;20034;-81
2022/03/30 03:17:08;;;;;;;26.77;11.25;;;;;;;8.07;61.96;97810.66;5003851;28;20455;-80
2022/03/30 03:19:33;;;;;;;17.67;10.93;;;;;;;8.05;61.92;97811.97;5005442;28;20034;-81
2022/03/30 03:21:59;;;;;;;20.13;10.52;;;;;;;8.04;61.75;97810.34;5004458;28;20388;-81
2022/03/30 03:24:24;;;;;;;18.95;10.38;;;;;;;7.92;62.65;97813.22;5002188;28;20046;-81
2022/03/30 03:26:51;;;;;;;19.90;10.57;;;;;;;7.88;62.75;97801.50;5020178;28;20441;-81
2022/03/30 03:29:16;;;;;;;19.27;10.82;;;;;;;7.92;62.20;97807.91;4983957;28;20038;-81
2022/03/30 03:31:42;;;;;;;22.92;9.80;;;;;;;7.97;62.80;97804.47;5017106;28;20052;-80
2022/03/30 03:34:08;;;;;;;20.20;8.63;;;;;;;7.94;62.95;97804.97;5006231;28;20534;-80
2022/03/30 03:36:34;;;;;;;15.88;9.68;;;;;;;7.99;62.09;97795.19;5004998;28;20547;-80
2022/03/30 03:39:00;;;;;;;17.95;9.88;;;;;;;8.01;62.50;97797.59;5006855;28;20092;-80
2022/03/30 03:41:25;;;;;;;20.73;10.05;;;;;;;7.99;62.65;97794.41;5015355;28;20031;-80
2022/03/30 03:43:50;;;;;;;18.15;9.25;;;;;;;7.94;62.31;97797.00;4998496;28;20034;-80
2022/03/30 03:46:16;;;;;;;22.15;10.25;;;;;;;7.88;62.59;97795.38;5005371;28;20048;-81
2022/03/30 03:48:41;;;;;;;24.02;9.73;;;;;;;8.04;61.42;97786.44;5005439;28;20029;-81
2022/03/30 03:51:06;;;;;;;20.40;9.90;;;;;;;7.89;62.16;97794.31;5008288;28;20029;-81
2022/03/30 03:53:34;;;;;;;24.95;10.43;;;;;;;7.86;62.25;97789.53;5018859;28;20047;-80
2022/03/30 03:56:00;;;;;;;23.27;10.88;;;;;;;7.92;62.45;97786.66;4990705;28;20454;-82
2022/03/30 03:58:25;;;;;;;20.50;10.15;;;;;;;7.82;61.84;97783.13;5012234;28;20030;-82
2022/03/30 04:00:51;;;;;;;14.27;10.02;;;;;;;7.81;61.97;97776.22;5011960;28;20089;-82
2022/03/30 04:03:16;;;;;;;23.65;10.50;;;;;;;7.77;62.62;97775.13;5009835;28;20065;-82
2022/03/30 04:05:41;;;;;;;25.48;10.38;;;;;;;7.83;62.43;97774.91;4999925;28;20581;-82
2022/03/30 04:08:07;;;;;;;18.65;11.07;;;;;;;7.86;61.94;97766.44;5008310;28;20035;-82
2022/03/30 04:10:33;;;;;;;25.98;10.85;;;;;;;7.82;62.34;97778.59;5015499;28;20029;-82
2022/03/30 04:12:58;;;;;;;19.05;11.20;;;;;;;7.90;62.50;97778.16;5000474;28;20393;-82
2022/03/30 04:15:23;;;;;;;23.77;10.35;;;;;;;7.78;62.61;97771.41;5007056;28;20034;-82
2022/03/30 04:17:49;;;;;;;21.00;11.23;;;;;;;7.89;62.00;97762.44;4993606;28;20022;-82
2022/03/30 04:20:16;;;;;;;24.10;11.38;;;;;;;7.80;62.33;97766.66;5012280;28;20044;-81
2022/03/30 04:22:42;;;;;;;24.38;9.82;;;;;;;7.90;61.46;97759.53;5011963;28;20116;-83
2022/03/30 04:25:08;;;;;;;21.48;11.90;;;;;;;7.88;61.98;97760.84;5009227;28;20477;-82
2022/03/30 04:27:34;;;;;;;18.05;10.57;;;;;;;7.77;62.65;97745.91;5005910;28;20504;-82
2022/03/30 04:30:00;;;;;;;20.67;10.93;;;;;;;7.85;61.54;97743.56;5011543;28;20030;-82
2022/03/30 04:32:25;;;;;;;20.17;9.93;;;;;;;7.97;61.82;97740.72;5024287;28;20477;-82
2022/03/30 04:34:50;;;;;;;28.00;10.95;;;;;;;7.82;62.12;97738.75;5011992;28;20041;-84
2022/03/30 04:37:16;;;;;;;21.40;11.90;;;;;;;7.84;62.43;97743.84;4993415;28;20037;-82
2022/03/30 04:39:41;;;;;;;18.67;11.43;;;;;;;7.81;62.42;97744.34;5012451;28;20030;-81
2022/03/30 04:42:07;;;;;;;22.92;11.32;;;;;;;7.76;62.40;97746.97;5012560;28;20063;-81
2022/03/30 04:44:32;;;;;;;21.00;10.85;;;;;;;7.79;62.55;97738.50;5012543;28;20068;-81
2022/03/30 04:46:58;;;;;;;22.70;10.43;;;;;;;7.77;61.75;97748.56;4995046;28;20045;-81
2022/03/30 04:49:23;;;;;;;24.05;12.32;;;;;;;7.73;62.33;97744.84;5011417;28;20029;-82
2022/03/30 04:51:49;;;;;;;19.95;11.43;;;;;;;7.70;62.46;97746.16;4979735;28;20386;-82
2022/03/30 04:54:15;;;;;;;21.20;12.15;;;;;;;7.69;62.97;97741.88;5013688;28;20030;-82
2022/03/30 04:56:41;;;;;;;19.88;10.55;;;;;;;7.76;62.32;97741.66;5011877;28;20409;-81
2022/03/30 04:59:06;;;;;;;22.83;11.32;;;;;;;7.70;62.14;97745.34;5011854;28;20026;-81
2022/03/30 05:01:31;;;;;;;18.92;11.13;;;;;;;7.80;62.40;97746.19;4994488;28;20486;-81
2022/03/30 05:03:57;;;;;;;18.52;11.60;;;;;;;7.64;62.45;97738.41;5017100;28;20109;-82
2022/03/30 05:06:22;;;;;;;19.90;11.27;;;;;;;7.80;62.29;97748.06;5011160;28;20030;-82
2022/03/30 05:08:47;;;;;;;20.83;11.07;;;;;;;7.65;62.56;97737.34;5027231;28;20030;-81
2022/03/30 05:11:13;;;;;;;18.58;11.00;;;;;;;7.63;62.93;97737.59;5028524;28;20556;-81
2022/03/30 05:13:38;;;;;;;20.35;10.90;;;;;;;7.51;62.55;97737.78;5011722;28;20140;-82
2022/03/30 05:16:04;;;;;;;23.58;11.57;;;;;;;7.74;62.11;97754.38;4998339;28;20083;-81
2022/03/30 05:18:29;;;;;;;25.52;10.90;;;;;;;7.57;62.90;97750.06;5010166;28;20022;-81
2022/03/30 05:20:54;;;;;;;20.40;10.30;;;;;;;7.62;62.50;97754.59;5012847;28;20389;-82
2022/03/30 05:23:20;;;;;;;19.05;11.05;;;;;;;7.62;62.45;97751.13;4995348;28;20600;-82
2022/03/30 05:25:45;;;;;;;22.25;11.02;;;;;;;7.74;61.56;97743.75;5012232;28;20034;-82
2022/03/30 05:28:11;;;;;;;23.63;12.15;;;;;;;7.70;61.90;97738.19;5012348;28;20064;-82
2022/03/30 05:30:36;;;;;;;17.38;10.45;;;;;;;7.72;62.04;97732.59;4995168;28;20034;-82
2022/03/30 05:33:01;;;;;;;25.02;12.68;;;;;;;7.49;62.40;97731.94;4991145;28;20065;-81
2022/03/30 05:35:27;;;;;;;19.42;9.90;;;;;;;7.52;62.47;97723.47;5021225;28;20504;-81
2022/03/30 05:37:52;;;;;;;18.52;10.65;;;;;;;7.41;62.69;97724.44;5009862;28;20522;-82
2022/03/30 05:40:18;;;;;;;23.25;10.88;;;;;;;7.44;63.36;97718.66;5000658;28;20064;-81
2022/03/30 05:42:44;;;;;;;19.08;10.52;;;;;;;7.52;63.01;97715.50;5010992;28;20022;-81
2022/03/30 05:45:09;;;;;;;22.05;11.43;;;;;;;7.54;62.62;97729.31;5016551;28;20059;-82
2022/03/30 05:47:35;;;;;;;20.25;11.60;;;;;;;7.52;63.08;97723.47;5016484;28;20034;-81
2022/03/30 05:50:01;;;;;;;17.15;10.10;;;;;;;7.57;63.13;97728.81;5013936;28;20021;-81
2022/03/30 05:52:27;;;;;;;20.83;11.15;;;;;;;7.57;62.86;97728.81;5005625;28;20325;-81
2022/03/30 05:54:52;;;;;;;28.52;11.68;;;;;;;7.66;62.79;97728.31;5019592;28;20036;-81
2022/03/30 05:57:21;;;;;;;23.10;11.13;;;;;;;7.70;62.96;97740.03;5011250;28;20084;-81
2022/03/30 05:59:46;;;;;;;18.85;10.43;;;;;;;7.72;61.75;97729.94;5011105;28;20026;-81
2022/03/30 06:02:12;;;;;;;21.20;9.95;;;;;;;7.53;62.97;97737.53;5008401;28;20045;-81
2022/03/30 06:04:39;;;;;;;18.30;10.02;;;;;;;7.55;63.04;97730.94;5015187;28;20080;-81
2022/03/30 06:07:05;;;;;;;19.35;9.52;;;;;;;7.67;62.65;97727.25;4995659;28;20033;-81
2022/03/30 06:09:33;;;;;;;20.05;10.90;;;;;;;7.64;62.70;97725.94;4997840;28;20026;-81
2022/03/30 06:12:03;;;;;;;24.90;11.48;;;;;;;7.70;62.38;97721.44;5005626;28;20037;-81
2022/03/30 06:14:31;;;;;;;19.67;11.00;;;;;;;7.67;62.37;97717.44;5015364;28;20042;-82
2022/03/30 06:16:57;;;;;;;18.98;11.00;;;;;;;7.62;62.60;97719.28;5021767;28;20539;-81
2022/03/30 06:19:22;;;;;;;20.85;10.88;;;;;;;7.71;62.44;97710.53;5015272;28;20034;-81
2022/03/30 06:21:48;;;;;;;20.08;10.25;;;;;;;7.73;62.98;97723.59;5001136;28;20096;-82
2022/03/30 06:24:14;;;;;;;25.42;10.77;;;;;;;7.69;62.77;97719.84;5015716;28;20037;-81
2022/03/30 06:26:41;;;;;;;15.13;9.93;;;;;;;7.72;63.20;97714.81;5004767;28;20030;-82
2022/03/30 06:29:07;;;;;;;19.25;10.27;;;;;;;7.72;63.04;97719.31;5009590;28;20396;-81
2022/03/30 06:31:33;;;;;;;25.45;12.15;;;;;;;7.79;62.96;97717.25;5010697;28;20041;-82
2022/03/30 06:33:59;;;;;;;22.40;11.07;;;;;;;7.76;63.06;97707.94;5017973;28;20036;-82
2022/03/30 06:36:24;;;;;;;21.23;12.55;;;;;;;7.83;62.51;97719.13;5014001;28;20489;-82
2022/03/30 06:38:50;;;;;;;18.48;11.25;;;;;;;7.91;62.80;97717.81;5016487;28;20180;-81
2022/03/30 06:41:17;;;;;;;20.55;10.65;;;;;;;7.80;62.27;97714.31;5007951;28;20132;-82
2022/03/30 06:43:42;;;;;;;18.23;10.20;;;;;;;7.76;63.13;97717.75;5015727;28;20033;-82
2022/03/30 06:46:10;;;;;;;20.45;9.90;;;;;;;7.82;63.34;97719.41;5008850;28;20026;-82
2022/03/30 06:48:36;;;;;;;18.67;11.30;;;;;;;7.81;63.23;97715.94;5019916;28;20148;-83
2022/03/30 06:51:03;;;;;;;20.77;11.13;;;;;;;7.79;63.00;97718.03;5009979;28;20548;-83
2022/03/30 06:53:29;;;;;;;21.73;10.15;;;;;;;7.84;63.32;97706.66;5010406;28;20028;-83
2022/03/30 06:55:54;;;;;;;20.45;11.23;;;;;;;7.80;63.18;97710.88;5000027;28;20084;-81
2022/03/30 06:58:22;;;;;;;26.17;10.13;;;;;;;7.92;62.98;97719.44;4993131;28;20034;-81
2022/03/30 07:00:47;;;;;;;17.88;10.95;;;;;;;7.89;62.87;97707.47;5014186;28;20116;-81
2022/03/30 07:03:12;;;;;;;26.17;11.75;;;;;;;7.92;63.19;97700.84;4994663;28;20134;-81
2022/03/30 07:05:38;;;;;;;20.25;10.10;;;;;;;8.02;62.85;97703.53;4971222;28;20088;-81
2022/03/30 07:10:48;;;;;;;18.27;10.15;;;;;;;8.00;62.83;97702.97;5010400;28;20037;-82
2022/03/30 07:13:13;;;;;;;23.85;10.68;;;;;;;8.00;63.33;97685.19;5010825;28;20485;-81
2022/03/30 07:15:39;;;;;;;17.73;10.55;;;;;;;8.06;62.93;97700.09;5010101;28;20103;-81
2022/03/30 07:18:06;;;;;;;20.60;10.45;;;;;;;8.04;62.78;97686.25;4998592;28;20026;-81
2022/03/30 07:20:32;;;;;;;20.42;12.30;;;;;;;8.06;63.34;97694.00;5020859;28;20037;-81
2022/03/30 07:22:58;;;;;;;23.80;11.85;;;;;;;8.09;63.04;97688.16;5019181;28;20488;-81
2022/03/30 07:25:25;;;;;;;21.48;11.23;;;;;;;8.10;62.70;97679.91;5020418;28;20041;-81
2022/03/30 07:27:53;;;;;;;22.08;11.00;;;;;;;8.22;62.85;97690.31;5019588;28;20057;-81
2022/03/30 07:30:20;;;;;;;23.25;11.68;;;;;;;8.23;62.51;97678.63;5017214;28;20033;-81
2022/03/30 07:32:47;;;;;;;20.88;11.35;;;;;;;8.31;62.75;97688.78;5012948;28;20037;-81
2022/03/30 07:35:16;;;;;;;24.52;10.95;;;;;;;8.39;61.88;97684.81;5024296;28;20074;-80
2022/03/30 07:37:43;;;;;;;27.15;12.07;;;;;;;8.39;63.09;97684.81;5013980;28;20021;-81
2022/03/30 07:40:12;;;;;;;22.10;13.07;;;;;;;8.43;62.69;97677.91;5014997;28;20033;-81
2022/03/30 07:42:38;;;;;;;24.20;13.05;;;;;;;8.45;62.84;97684.56;5014046;28;20048;-81
2022/03/30 07:45:04;;;;;;;27.10;12.63;;;;;;;8.41;62.66;97677.38;5032719;28;20029;-81
2022/03/30 07:47:31;;;;;;;25.13;13.07;;;;;;;8.45;62.56;97675.78;5032183;28;20034;-81
2022/03/30 07:49:56;;;;;;;25.02;12.23;;;;;;;8.56;61.90;97677.41;5007259;28;20455;-81
2022/03/30 07:52:23;;;;;;;25.52;13.27;;;;;;;8.61;62.48;97680.06;5034315;28;20113;-81
2022/03/30 07:54:49;;;;;;;28.08;13.18;;;;;;;8.65;62.55;97675.81;5021176;28;20029;-81
2022/03/30 07:57:15;;;;;;;22.20;13.23;;;;;;;8.69;61.72;97679.56;5017671;28;20024;-81
2022/03/30 07:59:41;;;;;;;21.60;12.35;;;;;;;8.67;61.90;97679.78;5017794;28;20079;-81
2022/03/30 08:02:08;;;;;;;23.90;13.07;;;;;;;8.75;62.20;97681.94;5009285;28;20030;-81
2022/03/30 08:04:34;;;;;;;25.98;12.38;;;;;;;8.77;62.04;97671.03;5018183;28;20025;-81
2022/03/30 08:06:59;;;;;;;24.90;12.77;;;;;;;8.79;61.91;97659.06;4991121;28;20114;-81
2022/03/30 08:09:25;;;;;;;24.20;13.10;;;;;;;8.85;62.38;97668.66;4996570;28;20436;-81
2022/03/30 08:11:51;;;;;;;26.75;13.27;;;;;;;8.89;61.75;97669.69;5022448;28;20061;-81
2022/03/30 08:14:16;;;;;;;25.80;13.95;;;;;;;8.92;61.48;97676.34;5015162;28;20033;-81
2022/03/30 08:16:42;;;;;;;26.17;14.20;;;;;;;8.98;61.98;97676.09;5016425;28;20087;-81
2022/03/30 08:19:08;;;;;;;32.25;13.43;;;;;;;8.96;61.70;97672.91;5020299;28;20493;-81
2022/03/30 08:24:19;;;;;;;27.38;13.85;;;;;;;9.02;61.87;97677.16;5012795;28;20064;-81
2022/03/30 08:26:45;;;;;;;22.48;13.65;;;;;;;9.05;61.45;97678.47;5013557;28;20158;-81
2022/03/30 08:29:11;;;;;;;20.92;13.38;;;;;;;9.05;61.68;97670.50;4998587;28;20037;-82
2022/03/30 08:31:36;;;;;;;28.02;14.13;;;;;;;9.12;61.03;97678.22;5018441;28;20025;-81
2022/03/30 08:34:02;;;;;;;27.75;15.52;;;;;;;9.13;61.69;97674.50;5019164;28;20476;-80
2022/03/30 08:36:31;;;;;;;26.20;13.77;;;;;;;9.06;61.41;97672.88;5013279;28;20029;-80
2022/03/30 08:38:57;;;;;;;26.50;13.88;;;;;;;9.15;61.85;97667.03;5020722;28;20048;-81
2022/03/30 08:41:23;;;;;;;27.75;14.43;;;;;;;9.14;61.93;97668.91;5014075;28;20029;-81
2022/03/30 08:43:49;;;;;;;26.73;13.38;;;;;;;9.22;61.67;97675.56;5016550;28;20034;-81
2022/03/30 08:46:14;;;;;;;29.95;15.05;;;;;;;9.26;61.78;97669.41;5004971;28;20026;-81
2022/03/30 08:48:41;;;;;;;26.08;13.98;;;;;;;9.26;61.13;97676.63;5023886;28;20148;-81
2022/03/30 08:51:06;;;;;;;26.58;14.00;;;;;;;9.26;61.43;97671.28;5018601;28;20021;-81
2022/03/30 08:53:32;;;;;;;26.58;16.02;;;;;;;9.28;61.66;97669.16;5012091;28;20500;-81
2022/03/30 08:55:57;;;;;;;27.50;14.02;;;;;;;9.32;61.28;97670.22;5007517;28;20030;-81
2022/03/30 08:58:23;;;;;;;22.73;14.52;;;;;;;9.33;61.69;97666.47;5022574;28;20049;-81
2022/03/30 09:00:51;;;;;;;32.13;14.15;;;;;;;9.41;61.01;97674.72;4997558;28;20102;-81
2022/03/30 09:03:17;;;;;;;24.08;13.90;;;;;;;9.41;61.71;97664.09;5016302;28;20257;-81
2022/03/30 09:05:42;;;;;;;26.92;13.63;;;;;;;9.45;61.49;97667.00;5027810;28;20473;-81
2022/03/30 09:08:10;;;;;;;22.83;14.32;;;;;;;9.52;61.47;97672.84;5017395;28;20048;-81
2022/03/30 09:10:36;;;;;;;22.75;13.80;;;;;;;9.54;61.75;97662.72;5010569;28;20478;-81
2022/03/30 09:13:04;;;;;;;30.60;16.27;;;;;;;9.60;60.75;97665.09;4994010;28;20698;-80
2022/03/30 09:15:31;;;;;;;29.55;15.25;;;;;;;9.64;60.92;97658.16;5009917;28;20030;-81
2022/03/30 09:18:04;;;;;;;29.08;15.85;;;;;;;9.70;61.54;97656.25;4990525;28;20501;-81
2022/03/30 09:20:31;;;;;;;31.98;15.23;;;;;;;9.80;60.36;97662.38;4995691;28;20064;-81
2022/03/30 09:22:58;;;;;;;29.02;15.00;;;;;;;9.77;61.41;97656.78;5010419;28;20026;-81
2022/03/30 09:25:26;;;;;;;26.95;15.07;;;;;;;9.90;60.50;97655.38;5006764;28;20168;-81
2022/03/30 09:27:55;;;;;;;25.95;15.95;;;;;;;9.93;60.92;97652.19;4992427;28;20034;-81
2022/03/30 09:30:21;;;;;;;34.40;15.45;;;;;;;10.00;60.74;97650.84;5035883;28;20129;-81
2022/03/30 09:32:49;;;;;;;32.95;16.23;;;;;;;10.04;60.22;97643.88;5019156;28;20052;-81
2022/03/30 09:35:30;;;;;;;28.25;14.98;;;;;;;10.25;60.01;97650.72;5018721;28;20041;-81
2022/03/30 09:38:06;;;;;;;35.55;15.82;;;;;;;10.19;60.02;97648.34;5010411;28;20021;-80
2022/03/30 09:40:34;;;;;;;30.77;15.70;;;;;;;10.22;60.59;97648.59;5008663;28;20025;-81
2022/03/30 09:43:29;;;;;;;25.88;15.23;;;;;;;10.19;60.12;97646.50;5008484;28;20136;-81
2022/03/30 09:46:12;;;;;;;33.17;15.95;;;;;;;10.25;60.45;97644.59;4997632;28;20287;-81
2022/03/30 09:48:44;;;;;;;31.58;15.45;;;;;;;10.35;60.16;97641.88;5013288;28;20073;-81
2022/03/30 09:51:09;;;;;;;30.75;15.57;;;;;;;10.45;59.68;97633.78;5011317;28;20107;-81
2022/03/30 09:53:36;;;;;;;27.52;16.13;;;;;;;10.52;59.58;97634.28;4995569;28;20022;-81
2022/03/30 09:56:07;;;;;;;31.77;16.77;;;;;;;10.55;59.95;97637.19;5001751;28;20087;-81
2022/03/30 09:58:35;;;;;;;28.80;15.80;;;;;;;10.64;59.86;97633.94;5012395;28;20017;-81
2022/03/30 10:01:10;;;;;;;35.53;16.38;;;;;;;10.68;60.11;97635.75;5011471;28;20482;-81
2022/03/30 10:03:55;;;;;;;31.70;16.98;;;;;;;10.83;60.16;97627.66;5003102;28;20030;-80
2022/03/30 10:06:26;;;;;;;29.30;16.20;;;;;;;10.80;60.30;97624.72;5017867;28;20040;-81
2022/03/30 10:08:53;;;;;;;29.17;16.02;;;;;;;10.94;59.31;97628.38;5012248;28;20112;-81
2022/03/30 10:11:21;;;;;;;30.65;16.80;;;;;;;10.97;59.30;97615.25;5022646;28;20084;-81
2022/03/30 10:13:54;;;;;;;29.80;18.38;;;;;;;10.99;59.30;97625.63;5013476;28;20404;-81
2022/03/30 10:16:21;;;;;;;33.35;17.42;;;;;;;11.06;59.28;97620.78;5007531;28;20072;-81
2022/03/30 10:18:48;;;;;;;35.75;16.60;;;;;;;11.25;58.66;97619.78;5017027;28;20564;-82
2022/03/30 10:21:41;;;;;;;27.27;15.52;;;;;;;11.24;58.44;97618.19;5010455;28;20030;-82
2022/03/30 10:24:26;;;;;;;29.02;16.63;;;;;;;11.33;58.60;97621.06;5030500;28;20086;-82
2022/03/30 10:26:59;;;;;;;27.13;17.13;;;;;;;11.38;57.90;97610.28;5019555;28;20087;-82
2022/03/30 10:29:27;;;;;;;35.30;17.90;;;;;;;11.43;57.84;97604.09;5007133;28;20032;-82
2022/03/30 10:32:15;;;;;;;29.30;17.90;;;;;;;11.27;58.47;97606.13;4998900;28;20099;-82
2022/03/30 10:34:47;;;;;;;32.50;17.52;;;;;;;11.31;58.17;97601.84;5010463;28;20464;-81
2022/03/30 10:37:12;;;;;;;30.85;15.98;;;;;;;11.27;58.47;97609.59;5011346;28;20034;-81
2022/03/30 10:40:03;;;;;;;31.38;17.98;;;;;;;11.19;58.05;97607.56;5000408;28;20048;-81
2022/03/30 10:42:47;;;;;;;31.30;15.82;;;;;;;11.17;58.46;97593.69;5009696;28;20029;-81
2022/03/30 10:45:18;;;;;;;30.17;16.05;;;;;;;11.24;58.16;97593.34;5019641;28;20108;-81
2022/03/30 10:48:06;;;;;;;36.35;19.23;;;;;;;11.26;58.19;97593.88;5014461;28;20026;-81
2022/03/30 10:50:37;;;;;;;30.02;16.90;;;;;;;11.24;57.75;97588.81;5017945;28;20018;-81
2022/03/30 10:53:02;;;;;;;33.25;17.67;;;;;;;11.31;57.41;97580.47;5017540;28;20051;-81
2022/03/30 10:55:31;;;;;;;36.83;18.92;;;;;;;11.41;57.56;97585.69;5022125;28;20034;-84
2022/03/30 10:58:04;;;;;;;31.58;17.63;;;;;;;11.48;57.12;97580.81;5004682;28;20066;-81
2022/03/30 11:00:36;;;;;;;36.38;18.90;;;;;;;11.46;57.10;97572.28;5018234;28;20054;-81
2022/03/30 11:03:20;;;;;;;33.78;16.52;;;;;;;11.56;57.52;97569.47;5007607;28;20125;-81
2022/03/30 11:06:05;;;;;;;31.38;16.67;;;;;;;11.69;56.71;97568.00;5025660;28;20212;-81
2022/03/30 11:08:34;;;;;;;31.03;16.73;;;;;;;11.69;57.09;97560.78;5026349;28;20038;-81
2022/03/30 11:11:45;;;;;;;30.02;17.88;;;;;;;11.74;57.08;97551.91;5012821;28;20275;-81
2022/03/30 11:14:33;;;;;;;30.98;16.70;;;;;;;11.89;56.11;97552.53;5014526;28;20076;-81
2022/03/30 11:17:15;;;;;;;31.23;17.20;;;;;;;11.98;56.05;97539.28;5015140;28;20383;-81
2022/03/30 11:19:46;;;;;;;27.58;16.35;;;;;;;12.16;56.03;97548.41;5014612;28;20026;-81
2022/03/30 11:22:21;;;;;;;28.27;16.67;;;;;;;12.27;56.42;97533.78;5025168;28;20048;-81
2022/03/30 11:25:05;;;;;;;25.35;15.45;;;;;;;12.40;55.87;97533.84;5009715;28;20040;-81
2022/03/30 11:27:31;;;;;;;26.90;16.35;;;;;;;12.48;55.42;97533.19;5011273;28;20408;-81
2022/03/30 11:29:59;;;;;;;31.42;17.27;;;;;;;12.57;55.20;97527.94;5016605;28;20029;-82
2022/03/30 11:32:28;;;;;;;28.20;15.93;;;;;;;12.66;55.05;97531.53;5019528;28;20076;-81
2022/03/30 11:34:55;;;;;;;29.13;16.85;;;;;;;12.65;55.46;97524.59;5019636;28;21551;-81
2022/03/30 11:37:36;;;;;;;25.20;15.43;;;;;;;12.69;55.30;97529.06;5018263;28;20025;-85